createdAt,value
2022-11-07T00:00:54.698Z,10.03
2022-11-07T00:05:56.893Z,10.90
2022-11-07T00:11:01.307Z,10.23
2022-11-07T00:16:05.682Z,12.13
2022-11-07T00:21:09.957Z,12.03
2022-11-07T00:26:14.834Z,10.30
2022-11-07T00:31:17.761Z,10.30
2022-11-07T00:36:21.714Z,11.97
2022-11-07T00:41:25.467Z,9.70
2022-11-07T00:46:27.466Z,8.77
2022-11-07T00:51:29.982Z,9.80
2022-11-07T00:56:33.926Z,9.90
2022-11-07T01:01:35.728Z,8.67
2022-11-07T01:06:39.639Z,8.13
2022-11-07T01:11:44.225Z,9.90
2022-11-07T01:16:46.282Z,8.50
2022-11-07T01:21:48.621Z,10.27
2022-11-07T01:26:52.077Z,11.50
2022-11-07T01:31:53.891Z,8.40
2022-11-07T01:36:55.766Z,9.70
2022-11-07T01:41:59.159Z,6.23
2022-11-07T01:47:01.707Z,8.10
2022-11-07T01:52:08.003Z,10.40
2022-11-07T01:57:15.934Z,10.63
2022-11-07T02:02:18.253Z,8.70
2022-11-07T02:07:21.951Z,8.70
2022-11-07T02:12:27.715Z,11.37
2022-11-07T02:17:29.618Z,9.57
2022-11-07T02:22:38.932Z,9.83
2022-11-07T02:27:43.550Z,7.70
2022-11-07T02:32:46.600Z,9.27
2022-11-07T02:37:48.676Z,8.50
2022-11-07T02:42:52.251Z,9.03
2022-11-07T02:47:54.213Z,6.60
2022-11-07T02:52:56.374Z,7.43
2022-11-07T02:57:59.753Z,6.43
2022-11-07T03:03:01.910Z,9.40
2022-11-07T03:08:04.287Z,7.63
2022-11-07T03:13:07.931Z,7.53
2022-11-07T03:18:09.543Z,8.83
2022-11-07T03:23:11.912Z,7.10
2022-11-07T03:28:15.497Z,7.23
2022-11-07T03:33:17.805Z,5.67
2022-11-07T03:38:20.046Z,8.13
2022-11-07T03:43:23.577Z,9.37
2022-11-07T03:48:25.380Z,6.83
2022-11-07T03:53:27.695Z,6.40
2022-11-07T03:58:31.373Z,6.77
2022-11-07T04:03:33.596Z,7.43
2022-11-07T04:08:35.627Z,7.80
2022-11-07T04:13:39.255Z,6.83
2022-11-07T04:18:41.314Z,8.03
2022-11-07T04:23:43.008Z,7.37
2022-11-07T04:28:46.479Z,7.13
2022-11-07T04:33:48.809Z,6.80
2022-11-07T04:38:50.855Z,6.57
2022-11-07T04:43:54.438Z,6.03
2022-11-07T04:48:56.604Z,5.07
2022-11-07T04:53:58.682Z,5.27
2022-11-07T04:59:02.566Z,5.20
2022-11-07T05:04:04.902Z,5.27
2022-11-07T05:09:06.581Z,6.57
2022-11-07T05:14:10.581Z,5.53
2022-11-07T05:19:15.503Z,5.47
2022-11-07T05:24:17.556Z,4.50
2022-11-07T05:29:20.554Z,4.47
2022-11-07T05:34:22.236Z,3.47
2022-11-07T05:39:24.257Z,4.30
2022-11-07T05:44:27.252Z,4.47
2022-11-07T05:49:28.883Z,3.37
2022-11-07T05:54:30.850Z,5.27
2022-11-07T05:59:34.271Z,5.57
2022-11-07T06:04:35.861Z,2.90
2022-11-07T06:09:37.663Z,7.47
2022-11-07T06:14:41.356Z,5.57
2022-11-07T06:19:43.406Z,3.60
2022-11-07T06:24:45.312Z,3.33
2022-11-07T06:29:48.778Z,3.00
2022-11-07T06:34:50.763Z,4.63
2022-11-07T06:39:52.750Z,3.00
2022-11-07T06:44:55.769Z,2.90
2022-11-07T06:49:57.495Z,6.17
2022-11-07T06:54:59.712Z,4.10
2022-11-07T07:00:03.611Z,3.73
2022-11-07T07:05:06.659Z,5.03
2022-11-07T07:10:09.114Z,5.07
2022-11-07T07:15:12.402Z,5.10
2022-11-07T07:20:14.526Z,3.93
2022-11-07T07:25:16.553Z,3.33
2022-11-07T07:30:19.961Z,4.97
2022-11-07T07:35:22.022Z,4.97
2022-11-07T07:40:25.751Z,2.83
2022-11-07T07:45:28.729Z,2.77
2022-11-07T07:50:30.413Z,2.13
2022-11-07T07:55:32.463Z,2.87
2022-11-07T08:00:36.265Z,2.43
2022-11-07T08:05:39.045Z,3.07
2022-11-07T08:10:42.842Z,2.43
2022-11-07T08:15:46.767Z,2.97
2022-11-07T08:20:50.131Z,4.03
2022-11-07T08:25:53.972Z,1.87
2022-11-07T08:30:59.839Z,2.27
2022-11-07T08:36:03.242Z,1.93
2022-11-07T08:41:05.735Z,3.57
2022-11-07T08:46:09.008Z,2.33
2022-11-07T08:51:13.081Z,2.27
2022-11-07T08:56:15.232Z,2.50
2022-11-07T09:01:18.775Z,3.47
2022-11-07T09:06:21.099Z,2.17
2022-11-07T09:11:23.048Z,1.57
2022-11-07T09:16:26.237Z,2.70
2022-11-07T09:21:28.328Z,1.87
2022-11-07T09:26:30.404Z,4.27
2022-11-07T09:31:33.836Z,1.50
2022-11-07T09:36:36.014Z,1.27
2022-11-07T09:41:48.903Z,1.73
2022-11-07T09:46:59.516Z,1.00
2022-11-07T09:52:08.450Z,1.83
2022-11-07T09:57:14.916Z,2.33
2022-11-07T10:02:20.416Z,2.27
2022-11-07T10:07:33.553Z,3.33
2022-11-07T10:12:52.552Z,2.40
2022-11-07T10:18:10.228Z,3.63
2022-11-07T10:23:32.888Z,2.07
2022-11-07T10:28:44.048Z,1.83
2022-11-07T10:33:52.530Z,1.33
2022-11-07T10:38:54.469Z,2.70
2022-11-07T10:43:59.620Z,3.57
2022-11-07T10:49:02.917Z,5.20
2022-11-07T10:54:05.401Z,1.93
2022-11-07T10:59:13.071Z,1.77
2022-11-07T11:04:22.602Z,1.43
2022-11-07T11:09:28.981Z,2.27
2022-11-07T11:14:30.675Z,0.90
2022-11-07T11:19:41.825Z,3.33
2022-11-07T11:24:44.157Z,2.50
2022-11-07T11:29:54.462Z,1.63
2022-11-07T11:35:06.451Z,0.93
2022-11-07T11:40:15.424Z,3.00
2022-11-07T11:45:22.458Z,5.80
2022-11-07T11:50:32.720Z,0.97
2022-11-07T11:55:42.622Z,1.37
2022-11-07T12:00:52.768Z,3.03
2022-11-07T12:06:14.004Z,5.13
2022-11-07T12:11:24.938Z,4.37
2022-11-07T12:16:32.438Z,2.60
2022-11-07T12:21:48.639Z,4.17
2022-11-07T12:26:58.198Z,2.50
2022-11-07T12:32:17.449Z,1.80
2022-11-07T12:37:36.739Z,1.57
2022-11-07T12:42:58.870Z,1.20
2022-11-07T12:48:19.072Z,6.83
2022-11-07T12:53:34.420Z,2.60
2022-11-07T12:58:38.762Z,1.73
2022-11-07T13:03:54.446Z,2.50
2022-11-07T13:09:05.944Z,0.80
2022-11-07T13:14:24.003Z,5.70
2022-11-07T13:19:32.639Z,7.37
2022-11-07T13:24:50.228Z,3.07
2022-11-07T13:29:52.508Z,2.73
2022-11-07T13:34:57.878Z,3.07
2022-11-07T13:40:06.017Z,1.60
2022-11-07T13:45:24.407Z,1.63
2022-11-07T13:50:37.717Z,2.00
2022-11-07T13:55:46.046Z,2.50
2022-11-07T14:00:48.222Z,1.53
2022-11-07T14:05:51.092Z,3.13
2022-11-07T14:10:54.826Z,3.77
2022-11-07T14:15:59.056Z,1.63
2022-11-07T14:21:00.898Z,4.00
2022-11-07T14:26:18.100Z,2.13
2022-11-07T14:31:26.423Z,3.77
2022-11-07T14:36:30.604Z,3.83
2022-11-07T14:41:38.969Z,2.77
2022-11-07T14:46:41.780Z,3.70
2022-11-07T14:51:43.797Z,1.97
2022-11-07T14:56:52.082Z,7.37
2022-11-07T15:01:56.182Z,2.63
2022-11-07T15:07:09.703Z,2.00
2022-11-07T15:12:17.895Z,2.17
2022-11-07T15:17:22.650Z,0.83
2022-11-07T15:22:30.105Z,4.93
2022-11-07T15:27:36.000Z,3.63
2022-11-07T15:32:42.322Z,4.77
2022-11-07T15:37:52.393Z,2.70
2022-11-07T15:42:55.374Z,3.33
2022-11-07T15:47:57.497Z,3.87
2022-11-07T15:52:59.618Z,1.93
2022-11-07T15:58:03.014Z,2.60
2022-11-07T16:03:05.209Z,3.90
2022-11-07T16:08:07.406Z,2.47
2022-11-07T16:13:11.133Z,4.63
2022-11-07T16:18:16.489Z,4.83
2022-11-07T16:23:19.322Z,1.10
2022-11-07T16:28:29.290Z,2.50
2022-11-07T16:33:31.332Z,2.57
2022-11-07T16:38:35.469Z,1.63
2022-11-07T16:43:39.370Z,3.27
2022-11-07T16:48:42.256Z,1.63
2022-11-07T16:53:44.606Z,2.93
2022-11-07T16:58:48.688Z,6.00
2022-11-07T17:03:50.364Z,6.80
2022-11-07T17:08:52.478Z,5.03
2022-11-07T17:13:56.165Z,3.33
2022-11-07T17:18:58.740Z,3.40
2022-11-07T17:24:02.074Z,2.43
2022-11-07T17:29:07.799Z,3.80
2022-11-07T17:34:10.356Z,4.47
2022-11-07T17:39:15.255Z,6.63
2022-11-07T17:44:19.095Z,2.60
2022-11-07T17:49:21.246Z,4.57
2022-11-07T17:54:29.096Z,2.53
2022-11-07T17:59:32.770Z,4.37
2022-11-07T18:04:34.675Z,2.07
2022-11-07T18:09:37.200Z,3.13
2022-11-07T18:14:40.813Z,2.50
2022-11-07T18:19:42.708Z,3.20
2022-11-07T18:24:44.757Z,7.47
2022-11-07T18:29:47.991Z,2.97
2022-11-07T18:34:50.320Z,4.23
2022-11-07T18:39:52.317Z,3.83
2022-11-07T18:44:55.295Z,4.43
2022-11-07T18:49:57.715Z,3.63
2022-11-07T18:55:00.393Z,0.90
2022-11-07T19:00:07.954Z,3.10
2022-11-07T19:05:14.490Z,3.50
2022-11-07T19:10:17.806Z,1.53
2022-11-07T19:15:21.526Z,2.57
2022-11-07T19:20:23.754Z,2.20
2022-11-07T19:25:25.914Z,4.07
2022-11-07T19:30:29.877Z,2.50
2022-11-07T19:35:32.684Z,4.00
2022-11-07T19:40:35.655Z,2.37
2022-11-07T19:45:42.172Z,3.17
2022-11-07T19:50:44.154Z,2.13
2022-11-07T19:55:45.924Z,2.77
2022-11-07T20:00:49.570Z,3.07
2022-11-07T20:05:51.602Z,4.67
2022-11-07T20:10:53.839Z,1.80
2022-11-07T20:15:58.137Z,3.13
2022-11-07T20:21:01.632Z,1.20
2022-11-07T20:26:06.379Z,1.60
2022-11-07T20:31:11.488Z,2.60
2022-11-07T20:36:15.398Z,4.53
2022-11-07T20:41:17.149Z,6.03
2022-11-07T20:46:21.177Z,2.20
2022-11-07T20:51:24.929Z,2.83
2022-11-07T20:56:28.371Z,3.07
2022-11-07T21:01:32.915Z,4.23
2022-11-07T21:06:35.358Z,2.23
2022-11-07T21:11:37.636Z,2.30
2022-11-07T21:16:40.687Z,3.47
2022-11-07T21:21:43.113Z,3.00
2022-11-07T21:26:45.333Z,3.40
2022-11-07T21:31:48.903Z,4.33
2022-11-07T21:36:51.528Z,3.73
2022-11-07T21:41:53.540Z,4.27
2022-11-07T21:46:56.545Z,2.37
2022-11-07T21:51:58.738Z,2.10
2022-11-07T21:57:00.773Z,1.43
2022-11-07T22:02:04.596Z,4.00
2022-11-07T22:07:06.938Z,9.23
2022-11-07T22:12:08.920Z,3.07
2022-11-07T22:17:12.374Z,5.30
2022-11-07T22:22:14.572Z,2.77
2022-11-07T22:27:16.532Z,6.00
2022-11-07T22:32:20.217Z,4.27
2022-11-07T22:37:22.454Z,3.63
2022-11-07T22:42:24.475Z,6.50
2022-11-07T22:47:27.801Z,1.93
2022-11-07T22:52:29.760Z,2.50
2022-11-07T22:57:31.845Z,2.07
2022-11-07T23:02:35.476Z,3.63
2022-11-07T23:07:37.729Z,3.50
2022-11-07T23:12:39.579Z,6.17
2022-11-07T23:17:43.275Z,2.87
2022-11-07T23:22:45.462Z,4.13
2022-11-07T23:27:47.461Z,4.67
2022-11-07T23:32:51.342Z,1.50
2022-11-07T23:37:53.478Z,2.37
2022-11-07T23:42:55.496Z,2.73
2022-11-07T23:48:00.745Z,1.93
2022-11-07T23:53:02.803Z,4.40
2022-11-07T23:58:05.062Z,3.67
